createdAt,value
2023-02-05T00:00:39.356Z,7.72
2023-02-05T00:03:05.935Z,7.45
2023-02-05T00:05:32.824Z,8.13
2023-02-05T00:07:59.534Z,7.55
2023-02-05T00:10:26.076Z,7.85
2023-02-05T00:12:52.637Z,7.70
2023-02-05T00:15:19.159Z,8.02
2023-02-05T00:17:45.683Z,7.20
2023-02-05T00:20:12.174Z,7.80
2023-02-05T00:22:38.702Z,7.93
2023-02-05T00:25:05.841Z,7.40
2023-02-05T00:27:33.750Z,7.25
2023-02-05T00:30:00.306Z,7.57
2023-02-05T00:32:26.814Z,8.02
2023-02-05T00:34:53.302Z,7.10
2023-02-05T00:37:20.019Z,7.18
2023-02-05T00:39:46.540Z,8.00
2023-02-05T00:42:13.024Z,7.65
2023-02-05T00:44:39.522Z,7.28
2023-02-05T00:47:06.017Z,6.50
2023-02-05T00:49:32.596Z,6.80
2023-02-05T00:51:59.224Z,7.25
2023-02-05T00:54:25.776Z,7.30
2023-02-05T00:56:52.299Z,7.38
2023-02-05T00:59:18.803Z,7.32
2023-02-05T01:01:45.463Z,5.93
2023-02-05T01:04:12.042Z,6.25
2023-02-05T01:06:38.529Z,7.25
2023-02-05T01:09:05.121Z,7.07
2023-02-05T01:11:31.643Z,6.70
2023-02-05T01:13:58.250Z,6.65
2023-02-05T01:16:24.824Z,6.63
2023-02-05T01:18:52.701Z,6.32
2023-02-05T01:21:19.249Z,6.25
2023-02-05T01:23:45.770Z,6.50
2023-02-05T01:26:12.293Z,6.10
2023-02-05T01:28:38.823Z,6.55
2023-02-05T01:31:05.572Z,6.57
2023-02-05T01:33:32.138Z,6.55
2023-02-05T01:35:58.679Z,6.18
2023-02-05T01:38:25.329Z,5.95
2023-02-05T01:40:52.002Z,6.28
2023-02-05T01:43:19.191Z,5.78
2023-02-05T01:45:52.114Z,6.65
2023-02-05T01:48:22.593Z,5.90
2023-02-05T01:50:54.466Z,6.07
2023-02-05T01:53:33.607Z,6.10
2023-02-05T01:56:17.440Z,5.32
2023-02-05T01:59:11.279Z,6.00
2023-02-05T02:01:39.391Z,6.28
2023-02-05T02:04:06.235Z,5.60
2023-02-05T02:06:34.875Z,5.53
2023-02-05T02:09:02.834Z,5.47
2023-02-05T02:11:32.266Z,5.80
2023-02-05T02:14:01.149Z,6.10
2023-02-05T02:16:28.820Z,5.55
2023-02-05T02:18:55.588Z,4.63
2023-02-05T02:21:37.589Z,4.80
2023-02-05T02:24:15.877Z,5.50
2023-02-05T02:27:09.790Z,5.35
2023-02-05T02:29:43.650Z,5.28
2023-02-05T02:32:18.634Z,5.30
2023-02-05T02:34:49.688Z,5.28
2023-02-05T02:37:25.469Z,4.90
2023-02-05T02:40:00.435Z,5.65
2023-02-05T02:42:55.763Z,5.55
2023-02-05T02:45:25.706Z,5.60
2023-02-05T02:47:55.897Z,5.07
2023-02-05T02:50:32.834Z,4.57
2023-02-05T02:53:19.170Z,4.53
2023-02-05T02:55:49.299Z,4.68
2023-02-05T02:58:27.627Z,4.53
2023-02-05T03:00:55.246Z,4.53
2023-02-05T03:03:26.466Z,4.32
2023-02-05T03:05:57.010Z,4.57
2023-02-05T03:08:31.017Z,4.32
2023-02-05T03:11:12.618Z,4.85
2023-02-05T03:13:39.633Z,4.18
2023-02-05T03:16:06.856Z,4.88
2023-02-05T03:18:33.557Z,4.53
2023-02-05T03:21:12.682Z,3.92
2023-02-05T03:23:39.602Z,4.30
2023-02-05T03:26:06.175Z,4.72
2023-02-05T03:28:32.705Z,3.67
2023-02-05T03:31:31.422Z,3.80
2023-02-05T03:34:12.600Z,4.30
2023-02-05T03:36:45.168Z,3.80
2023-02-05T03:39:30.543Z,4.38
2023-02-05T03:42:05.338Z,3.92
2023-02-05T03:45:03.772Z,3.72
2023-02-05T03:47:51.537Z,4.07
2023-02-05T03:50:36.026Z,3.90
2023-02-05T03:53:11.647Z,4.40
2023-02-05T03:55:45.049Z,4.00
2023-02-05T03:58:37.730Z,3.35
2023-02-05T04:01:04.601Z,3.75
2023-02-05T04:03:31.144Z,3.22
2023-02-05T04:05:57.703Z,3.30
2023-02-05T04:08:24.259Z,3.35
2023-02-05T04:10:50.791Z,2.85
2023-02-05T04:13:17.289Z,3.20
2023-02-05T04:15:43.801Z,3.40
2023-02-05T04:18:10.338Z,3.45
2023-02-05T04:20:36.843Z,3.53
2023-02-05T04:23:03.346Z,3.10
2023-02-05T04:25:29.927Z,3.55
2023-02-05T04:27:56.519Z,3.58
2023-02-05T04:30:23.085Z,3.50
2023-02-05T04:32:49.606Z,2.85
2023-02-05T04:35:16.135Z,3.03
2023-02-05T04:37:42.602Z,2.83
2023-02-05T04:40:09.886Z,2.85
2023-02-05T04:42:36.429Z,3.00
2023-02-05T04:45:05.733Z,2.95
2023-02-05T04:47:33.163Z,3.28
2023-02-05T04:49:59.784Z,3.53
2023-02-05T04:52:26.306Z,2.83
2023-02-05T04:54:52.782Z,2.65
2023-02-05T04:57:19.277Z,2.92
2023-02-05T04:59:45.749Z,2.60
2023-02-05T05:02:12.270Z,2.50
2023-02-05T05:04:38.853Z,2.70
2023-02-05T05:07:05.376Z,2.35
2023-02-05T05:09:31.893Z,2.55
2023-02-05T05:11:58.466Z,2.35
2023-02-05T05:14:24.965Z,2.78
2023-02-05T05:16:51.429Z,2.03
2023-02-05T05:19:17.918Z,2.45
2023-02-05T05:21:44.474Z,2.13
2023-02-05T05:24:11.054Z,2.20
2023-02-05T05:26:39.225Z,2.55
2023-02-05T05:29:06.242Z,1.88
2023-02-05T05:31:32.787Z,2.45
2023-02-05T05:33:59.376Z,1.88
2023-02-05T05:36:25.926Z,2.03
2023-02-05T05:38:52.422Z,2.13
2023-02-05T05:41:43.936Z,1.50
2023-02-05T05:44:11.281Z,1.75
2023-02-05T05:46:37.838Z,1.80
2023-02-05T05:49:04.378Z,1.67
2023-02-05T05:51:32.687Z,2.22
2023-02-05T05:53:59.275Z,1.90
2023-02-05T05:56:25.766Z,1.92
2023-02-05T05:58:52.566Z,2.28
2023-02-05T06:01:21.979Z,1.92
2023-02-05T06:03:48.798Z,1.50
2023-02-05T06:06:15.443Z,1.52
2023-02-05T06:08:41.976Z,1.70
2023-02-05T06:11:08.639Z,1.60
2023-02-05T06:13:35.490Z,1.50
2023-02-05T06:16:02.346Z,1.50
2023-02-05T06:18:29.226Z,1.45
2023-02-05T06:20:55.802Z,1.70
2023-02-05T06:23:22.269Z,1.48
2023-02-05T06:25:48.949Z,1.70
2023-02-05T06:28:15.492Z,1.88
2023-02-05T06:30:42.031Z,2.45
2023-02-05T06:33:08.563Z,3.85
2023-02-05T06:35:35.367Z,4.95
2023-02-05T06:38:02.197Z,5.25
2023-02-05T06:40:28.834Z,6.43
2023-02-05T06:42:55.697Z,6.55
2023-02-05T06:45:22.726Z,7.65
2023-02-05T06:47:50.042Z,8.57
2023-02-05T06:50:16.574Z,9.73
2023-02-05T06:52:43.149Z,9.57
2023-02-05T06:55:09.685Z,11.23
2023-02-05T06:57:36.542Z,10.65
2023-02-05T07:00:07.127Z,11.77
2023-02-05T07:02:33.695Z,13.88
2023-02-05T07:05:00.271Z,13.70
2023-02-05T07:07:26.903Z,14.48
2023-02-05T07:09:53.475Z,15.70
2023-02-05T07:12:20.140Z,17.02
2023-02-05T07:14:46.790Z,17.80
2023-02-05T07:17:13.453Z,16.88
2023-02-05T07:19:39.982Z,16.95
2023-02-05T07:22:06.545Z,18.25
2023-02-05T07:24:33.054Z,17.17
2023-02-05T07:26:59.596Z,18.27
2023-02-05T07:29:27.143Z,20.48
2023-02-05T07:31:53.717Z,20.65
2023-02-05T07:34:20.211Z,19.88
2023-02-05T07:36:50.826Z,20.73
2023-02-05T07:41:44.453Z,21.70
2023-02-05T07:44:11.046Z,21.77
2023-02-05T07:46:37.594Z,23.55
2023-02-05T07:49:04.135Z,23.60
2023-02-05T07:51:30.736Z,23.52
2023-02-05T07:53:57.233Z,22.65
2023-02-05T07:56:25.946Z,23.63
2023-02-05T07:58:52.456Z,24.45
2023-02-05T08:01:19.046Z,24.42
2023-02-05T08:03:45.614Z,24.83
2023-02-05T08:06:14.972Z,24.52
2023-02-05T08:08:41.541Z,24.85
2023-02-05T08:11:08.507Z,25.52
2023-02-05T08:13:35.130Z,25.58
2023-02-05T08:16:05.669Z,24.25
2023-02-05T08:18:32.258Z,25.60
2023-02-05T08:20:58.888Z,24.25
2023-02-05T08:23:25.776Z,24.98
2023-02-05T08:25:57.378Z,25.80
2023-02-05T08:28:25.989Z,26.17
2023-02-05T08:30:52.607Z,23.65
2023-02-05T08:33:19.152Z,23.80
2023-02-05T08:35:45.755Z,24.42
2023-02-05T08:38:12.329Z,23.10
2023-02-05T08:40:39.016Z,23.27
2023-02-05T08:43:05.778Z,23.35
2023-02-05T08:45:32.573Z,23.85
2023-02-05T08:47:59.403Z,22.77
2023-02-05T08:50:26.009Z,22.48
2023-02-05T08:52:52.601Z,23.83
2023-02-05T08:55:19.332Z,23.10
2023-02-05T08:57:46.298Z,21.95
2023-02-05T09:00:14.976Z,23.30
2023-02-05T09:02:43.238Z,22.90
2023-02-05T09:05:10.013Z,20.10
2023-02-05T09:07:38.923Z,20.55
2023-02-05T09:10:08.168Z,19.75
2023-02-05T09:12:34.687Z,20.50
2023-02-05T09:15:01.210Z,20.50
2023-02-05T09:17:27.819Z,19.70
2023-02-05T09:19:54.884Z,19.45
2023-02-05T09:22:21.382Z,19.73
2023-02-05T09:24:47.922Z,18.45
2023-02-05T09:27:15.022Z,19.70
2023-02-05T09:29:42.081Z,18.75
2023-02-05T09:32:08.881Z,17.73
2023-02-05T09:34:35.395Z,17.05
2023-02-05T09:37:01.971Z,17.23
2023-02-05T09:40:13.097Z,17.50
2023-02-05T09:42:36.925Z,18.13
2023-02-05T09:45:06.373Z,17.60
2023-02-05T09:47:49.854Z,16.20
2023-02-05T09:50:16.348Z,15.50
2023-02-05T09:52:50.982Z,16.08
2023-02-05T09:55:42.374Z,17.25
2023-02-05T09:58:48.982Z,14.93
2023-02-05T10:01:21.557Z,14.38
2023-02-05T10:03:56.203Z,14.70
2023-02-05T10:06:35.831Z,13.98
2023-02-05T10:09:24.643Z,12.98
2023-02-05T10:12:13.078Z,12.02
2023-02-05T10:14:58.097Z,12.93
2023-02-05T10:17:49.596Z,13.02
2023-02-05T10:20:31.155Z,11.93
2023-02-05T10:23:15.777Z,11.60
2023-02-05T10:25:50.163Z,12.07
2023-02-05T10:28:29.442Z,11.75
2023-02-05T10:31:07.257Z,11.73
2023-02-05T10:33:56.828Z,11.15
2023-02-05T10:36:26.712Z,11.18
2023-02-05T10:38:56.746Z,10.60
2023-02-05T10:41:26.016Z,10.43
2023-02-05T10:44:03.271Z,10.27
2023-02-05T10:46:36.960Z,11.13
2023-02-05T10:49:33.495Z,10.95
2023-02-05T10:52:00.115Z,9.10
2023-02-05T10:54:29.578Z,10.60
2023-02-05T10:56:58.228Z,9.68
2023-02-05T10:59:28.026Z,9.27
2023-02-05T11:01:57.683Z,9.73
2023-02-05T11:05:10.041Z,8.57
2023-02-05T11:07:42.076Z,8.60
2023-02-05T11:10:30.146Z,8.50
2023-02-05T11:13:04.954Z,9.02
2023-02-05T11:15:33.580Z,8.48
2023-02-05T11:18:04.255Z,8.05
2023-02-05T11:20:38.486Z,8.02
2023-02-05T11:23:21.143Z,7.35
2023-02-05T11:26:07.252Z,7.82
2023-02-05T11:28:36.505Z,7.90
2023-02-05T11:31:21.598Z,8.07
2023-02-05T11:33:48.848Z,7.45
2023-02-05T11:36:21.382Z,7.10
2023-02-05T11:38:57.154Z,7.97
2023-02-05T11:41:48.071Z,6.80
2023-02-05T11:44:20.482Z,7.07
2023-02-05T11:46:47.947Z,7.00
2023-02-05T11:49:22.552Z,7.43
2023-02-05T11:51:52.989Z,6.82
2023-02-05T11:54:29.659Z,6.18
2023-02-05T11:57:08.142Z,5.63
2023-02-05T11:59:35.833Z,5.72
2023-02-05T12:02:24.188Z,5.43
2023-02-05T12:04:55.091Z,6.18
2023-02-05T12:07:24.802Z,6.57
2023-02-05T12:09:55.670Z,5.32
2023-02-05T12:12:39.460Z,5.20
2023-02-05T12:15:14.851Z,5.22
2023-02-05T12:18:13.704Z,4.90
2023-02-05T12:20:50.593Z,5.13
2023-02-05T12:23:23.543Z,5.22
2023-02-05T12:25:50.030Z,5.38
2023-02-05T12:28:44.446Z,5.18
2023-02-05T12:31:23.380Z,4.90
2023-02-05T12:34:06.405Z,5.55
2023-02-05T12:36:35.844Z,5.07
2023-02-05T12:39:30.273Z,5.00
2023-02-05T12:42:15.102Z,5.28
2023-02-05T12:45:03.822Z,4.22
2023-02-05T12:47:48.337Z,5.68
2023-02-05T12:50:42.757Z,4.85
2023-02-05T12:53:30.053Z,4.43
2023-02-05T12:56:28.284Z,4.70
2023-02-05T12:59:01.553Z,4.85
2023-02-05T13:01:58.052Z,4.20
2023-02-05T13:04:30.021Z,4.78
2023-02-05T13:07:11.671Z,4.30
2023-02-05T13:09:57.084Z,4.20
2023-02-05T13:12:28.712Z,4.15
2023-02-05T13:15:08.193Z,4.55
2023-02-05T13:17:40.419Z,3.05
2023-02-05T13:20:56.352Z,3.72
2023-02-05T13:23:43.954Z,3.70
2023-02-05T13:26:24.537Z,3.60
2023-02-05T13:28:56.960Z,3.55
2023-02-05T13:31:30.253Z,3.58
2023-02-05T13:34:03.067Z,3.63
2023-02-05T13:36:52.409Z,3.85
2023-02-05T13:39:33.836Z,3.72
2023-02-05T13:42:39.331Z,3.45
2023-02-05T13:45:52.529Z,3.97
2023-02-05T13:48:49.823Z,3.10
2023-02-05T13:51:39.180Z,4.18
2023-02-05T13:54:27.760Z,4.05
2023-02-05T13:57:49.301Z,3.60
2023-02-05T14:00:16.875Z,3.20
2023-02-05T14:02:48.063Z,3.17
2023-02-05T14:05:16.594Z,2.78
2023-02-05T14:07:50.813Z,2.80
2023-02-05T14:10:29.450Z,3.42
2023-02-05T14:13:13.121Z,2.90
2023-02-05T14:15:42.734Z,3.42
2023-02-05T14:18:40.567Z,3.13
2023-02-05T14:21:32.861Z,3.97
2023-02-05T14:24:02.714Z,3.47
2023-02-05T14:26:48.149Z,3.38
2023-02-05T14:29:42.752Z,3.03
2023-02-05T14:32:33.335Z,3.28
2023-02-05T14:35:32.492Z,3.40
2023-02-05T14:38:14.812Z,2.80
2023-02-05T14:40:41.751Z,3.03
2023-02-05T14:43:38.485Z,3.60
2023-02-05T14:46:19.686Z,3.70
2023-02-05T14:48:47.600Z,3.47
2023-02-05T14:51:25.804Z,3.05
2023-02-05T14:54:00.145Z,2.95
2023-02-05T14:56:40.452Z,2.80
2023-02-05T14:59:31.905Z,3.25
2023-02-05T15:01:59.747Z,2.45
2023-02-05T15:04:41.757Z,2.85
2023-02-05T15:07:20.334Z,2.55
2023-02-05T15:09:53.418Z,2.70
2023-02-05T15:12:53.724Z,3.10
2023-02-05T15:15:34.297Z,3.00
2023-02-05T15:18:05.780Z,3.90
2023-02-05T15:20:36.451Z,3.58
2023-02-05T15:23:29.150Z,4.45
2023-02-05T15:26:01.833Z,4.53
2023-02-05T15:28:41.741Z,4.93
2023-02-05T15:31:16.953Z,5.05
2023-02-05T15:33:54.440Z,5.53
2023-02-05T15:36:40.321Z,6.60
2023-02-05T15:39:24.129Z,6.60
2023-02-05T15:41:55.675Z,7.00
2023-02-05T15:44:34.605Z,9.40
2023-02-05T15:47:05.369Z,8.65
2023-02-05T15:49:36.671Z,9.55
2023-02-05T15:52:04.522Z,9.75
2023-02-05T15:54:34.043Z,10.38
2023-02-05T15:57:03.072Z,10.00
2023-02-05T15:59:31.598Z,11.65
2023-02-05T16:02:09.028Z,11.75
2023-02-05T16:04:38.800Z,10.98
2023-02-05T16:07:23.410Z,13.18
2023-02-05T16:09:54.021Z,14.23
2023-02-05T16:12:20.756Z,15.43
2023-02-05T16:14:57.712Z,16.52
2023-02-05T16:17:45.681Z,19.00
2023-02-05T16:20:22.360Z,18.25
2023-02-05T16:22:52.755Z,20.85
2023-02-05T16:25:19.197Z,21.60
2023-02-05T16:27:50.820Z,24.10
2023-02-05T16:30:23.389Z,26.75
2023-02-05T16:32:55.824Z,23.83
2023-02-05T16:35:39.521Z,26.08
2023-02-05T16:38:10.958Z,27.02
2023-02-05T16:40:43.216Z,25.95
2023-02-05T16:43:24.897Z,28.65
2023-02-05T16:46:06.739Z,28.88
2023-02-05T16:48:49.854Z,29.10
2023-02-05T16:51:28.530Z,28.77
2023-02-05T16:53:55.045Z,31.15
2023-02-05T16:56:25.193Z,30.20
2023-02-05T16:58:55.744Z,31.75
2023-02-05T17:01:37.016Z,31.02
2023-02-05T17:04:03.797Z,30.73
2023-02-05T17:06:35.413Z,32.05
2023-02-05T17:09:04.926Z,29.23
2023-02-05T17:11:37.695Z,29.25
2023-02-05T17:14:32.675Z,27.80
2023-02-05T17:17:04.187Z,26.42
2023-02-05T17:19:33.216Z,25.60
2023-02-05T17:22:14.791Z,26.88
2023-02-05T17:24:48.800Z,27.02
2023-02-05T17:27:27.245Z,28.30
2023-02-05T17:29:54.534Z,27.45
2023-02-05T17:32:21.965Z,29.60
2023-02-05T17:34:48.712Z,28.45
2023-02-05T17:37:15.376Z,29.55
2023-02-05T17:39:42.576Z,30.45
2023-02-05T17:42:25.444Z,30.85
2023-02-05T17:44:53.166Z,29.00
2023-02-05T17:47:20.123Z,29.67
2023-02-05T17:49:46.740Z,30.67
2023-02-05T17:52:15.376Z,30.58
2023-02-05T17:54:43.133Z,30.95
2023-02-05T17:57:18.882Z,30.85
2023-02-05T17:59:46.429Z,31.02
2023-02-05T18:02:14.035Z,30.33
2023-02-05T18:04:41.545Z,30.05
2023-02-05T18:07:33.570Z,29.13
2023-02-05T18:10:00.290Z,29.33
2023-02-05T18:12:26.994Z,30.08
2023-02-05T18:14:54.201Z,30.33
2023-02-05T18:17:20.789Z,30.05
2023-02-05T18:19:47.321Z,29.80
2023-02-05T18:22:14.235Z,30.73
2023-02-05T18:24:40.743Z,31.05
2023-02-05T18:27:12.150Z,29.83
2023-02-05T18:29:39.407Z,29.67
2023-02-05T18:32:06.629Z,28.63
2023-02-05T18:34:33.233Z,29.50
2023-02-05T18:37:00.031Z,30.75
2023-02-05T18:39:28.583Z,29.65
2023-02-05T18:41:56.234Z,30.33
2023-02-05T18:44:23.350Z,28.08
2023-02-05T18:46:49.968Z,30.92
2023-02-05T18:49:16.850Z,28.88
2023-02-05T18:51:43.708Z,29.30
2023-02-05T18:54:10.539Z,28.73
2023-02-05T18:56:37.292Z,28.80
2023-02-05T18:59:06.852Z,28.77
2023-02-05T19:01:38.679Z,29.75
2023-02-05T19:04:15.923Z,28.38
2023-02-05T19:06:44.458Z,28.73
2023-02-05T19:09:11.468Z,27.65
2023-02-05T19:11:41.306Z,26.92
2023-02-05T19:14:11.451Z,27.15
2023-02-05T19:16:39.711Z,27.58
2023-02-05T19:19:06.656Z,27.55
2023-02-05T19:21:33.695Z,26.67
2023-02-05T19:24:07.085Z,25.90
2023-02-05T19:26:35.481Z,26.45
2023-02-05T19:29:05.121Z,26.65
2023-02-05T19:31:33.645Z,26.85
2023-02-05T19:34:01.373Z,25.27
2023-02-05T19:36:28.454Z,27.08
2023-02-05T19:38:54.974Z,27.67
2023-02-05T19:41:24.373Z,26.35
2023-02-05T19:43:56.886Z,25.05
2023-02-05T19:46:26.848Z,25.67
2023-02-05T19:48:55.546Z,24.48
2023-02-05T19:51:22.352Z,25.10
2023-02-05T19:53:48.977Z,25.13
2023-02-05T19:56:22.181Z,23.88
2023-02-05T19:58:51.465Z,26.45
2023-02-05T20:01:19.635Z,25.70
2023-02-05T20:03:46.286Z,25.02
2023-02-05T20:06:15.969Z,26.30
2023-02-05T20:08:45.295Z,24.63
2023-02-05T20:11:12.684Z,25.08
2023-02-05T20:13:39.887Z,27.02
2023-02-05T20:16:13.175Z,25.25
2023-02-05T20:18:41.146Z,25.13
2023-02-05T20:21:12.682Z,27.30
2023-02-05T20:23:39.702Z,26.58
2023-02-05T20:26:07.823Z,26.70
2023-02-05T20:28:57.849Z,28.02
2023-02-05T20:31:35.245Z,26.38
2023-02-05T20:34:06.905Z,26.17
2023-02-05T20:36:34.929Z,26.35
2023-02-05T20:39:05.075Z,27.75
2023-02-05T20:41:31.959Z,26.63
2023-02-05T20:43:58.905Z,26.55
2023-02-05T20:46:26.439Z,26.30
2023-02-05T20:48:52.948Z,26.70
2023-02-05T20:51:22.205Z,26.65
2023-02-05T20:53:49.424Z,25.58
2023-02-05T20:56:20.124Z,25.85
2023-02-05T20:58:47.369Z,26.70
2023-02-05T21:01:20.623Z,25.40
2023-02-05T21:03:50.278Z,24.75
2023-02-05T21:06:18.707Z,24.10
2023-02-05T21:08:46.906Z,24.83
2023-02-05T21:11:15.099Z,25.20
2023-02-05T21:13:43.079Z,24.42
2023-02-05T21:16:11.807Z,23.30
2023-02-05T21:18:40.319Z,25.35
2023-02-05T21:21:08.434Z,25.95
2023-02-05T21:23:35.557Z,24.55
2023-02-05T21:26:02.355Z,23.90
2023-02-05T21:28:29.280Z,23.85
2023-02-05T21:31:07.769Z,24.70
2023-02-05T21:33:35.287Z,24.95
2023-02-05T21:36:10.418Z,24.67
2023-02-05T21:38:38.699Z,24.52
2023-02-05T21:41:13.574Z,24.40
2023-02-05T21:43:40.756Z,24.05
2023-02-05T21:46:10.131Z,23.60
2023-02-05T21:48:36.698Z,24.65
2023-02-05T21:51:08.717Z,23.38
2023-02-05T21:53:35.431Z,23.23
2023-02-05T21:56:03.579Z,23.08
2023-02-05T21:58:34.320Z,23.42
2023-02-05T22:01:13.146Z,23.80
2023-02-05T22:03:41.246Z,23.92
2023-02-05T22:06:08.806Z,23.35
2023-02-05T22:08:37.750Z,22.90
2023-02-05T22:11:06.445Z,22.60
2023-02-05T22:13:35.098Z,23.42
2023-02-05T22:16:13.009Z,22.48
2023-02-05T22:18:39.788Z,23.67
2023-02-05T22:21:23.636Z,21.50
2023-02-05T22:23:52.255Z,21.58
2023-02-05T22:26:24.731Z,21.63
2023-02-05T22:28:51.448Z,22.13
2023-02-05T22:31:20.033Z,22.40
2023-02-05T22:33:48.569Z,21.60
2023-02-05T22:36:16.721Z,21.58
2023-02-05T22:38:43.743Z,20.70
2023-02-05T22:41:12.668Z,21.20
2023-02-05T22:43:39.907Z,21.58
2023-02-05T22:46:09.614Z,19.40
2023-02-05T22:48:37.796Z,20.90
2023-02-05T22:51:09.870Z,20.58
2023-02-05T22:53:37.068Z,19.80
2023-02-05T22:56:06.538Z,19.50
2023-02-05T22:58:33.685Z,18.45
2023-02-05T23:01:11.128Z,19.17
2023-02-05T23:03:38.482Z,19.38
2023-02-05T23:06:13.636Z,18.77
2023-02-05T23:08:40.899Z,19.48
2023-02-05T23:11:10.573Z,19.00
2023-02-05T23:13:37.095Z,18.10
2023-02-05T23:16:15.338Z,17.70
2023-02-05T23:18:42.617Z,17.63
2023-02-05T23:21:18.049Z,18.98
2023-02-05T23:23:44.919Z,17.73
2023-02-05T23:26:18.050Z,17.98
2023-02-05T23:28:45.114Z,16.13
2023-02-05T23:31:11.772Z,17.98
2023-02-05T23:33:38.593Z,17.67
2023-02-05T23:36:06.823Z,17.38
2023-02-05T23:38:34.020Z,17.65
2023-02-05T23:41:01.020Z,17.10
2023-02-05T23:43:27.986Z,16.77
2023-02-05T23:45:54.979Z,16.50
2023-02-05T23:48:21.584Z,16.42
2023-02-05T23:50:54.620Z,15.15
2023-02-05T23:53:21.540Z,16.20
2023-02-05T23:55:49.746Z,15.23
2023-02-05T23:58:17.530Z,15.73
